Aeroporto :
LOGIN :

Iscrizione | Disclaimer

   EN    FR    IT 

 










Sommario :    VFR   VFR Marginale   IFR   IFR Intensivo   IFR Molto Intensivo
Visibilità : 
Base nubi : 
>= 8 km
>= 3000ft
5 / 8 km
1000 / 3000 ft
1500m / 5 km
500 / 1000 ft
800 / 1500m
200 / 500 ft
< 800m
< 200 ft
Simboli :   Temporali  Nebbia  Neve Forte  Precipitazioni Forti  Vento > 20 kt
SIGMETs :   Varie  Temporali  Ghiacco  Turbolenza  Onda orograficha  Ceneri Vulcaniche






- Altitudine del aeroporto : 119 ft
- Codice IATA : WAT


EIWF - Waterford

METAR N/A
TAF TAF EIWF
Valido dal 18 a 06 ore il 18 a 15 ore UTC


180500Z 1806/1815 25016KT 9999 FEW020 SCT030
TEMPO 1806/1812 25020G32KT
TEMPO 1806/1815 -SHRA SCT018CB
PROB30
TEMPO 1811/1813 25025G40KT
PROB30
TEMPO 1811/1814 4000 SHRA
BECMG 1812/1814 27018KT
TEMPO 1814/1815 28022G35KT
ATIS : +353 51 877 000



MetMap, La meteo Aeronautica in un colpo d'occhio ! - Copyright ORBIFLY Dicembre 2007 - Disclaimer

ORBIFLY MET'MAP TEAM :

Programmazione e sviluppo : Alexandra Zaïnal
Concezione : Baudouin d'Aumeries
Aiuto per la programmazione : Marc-Olivier Méhu
Supporto tecnico e logistico : Manuel Goepfert
Aiuto per la traduzione : Arnaldo La Scala

Contatto : metmap@orbifly.com




FONTI E CREDITI :

   NOAA